sensor_id;sensor_type;location;lat;lon;timestamp;P1;durP1;ratioP1;P2;durP2;ratioP2
37477;SDS011;23334;54.316;10.182;2024-02-21T00:00:39;28.70;;;12.90;;
37477;SDS011;23334;54.316;10.182;2024-02-21T00:03:06;34.23;;;12.00;;
37477;SDS011;23334;54.316;10.182;2024-02-21T00:05:34;27.20;;;12.00;;
37477;SDS011;23334;54.316;10.182;2024-02-21T00:08:02;24.57;;;11.73;;
37477;SDS011;23334;54.316;10.182;2024-02-21T00:10:28;37.70;;;12.40;;
37477;SDS011;23334;54.316;10.182;2024-02-21T00:12:56;26.90;;;13.47;;
37477;SDS011;23334;54.316;10.182;2024-02-21T00:15:24;32.60;;;12.33;;
37477;SDS011;23334;54.316;10.182;2024-02-21T00:17:50;33.37;;;12.50;;
37477;SDS011;23334;54.316;10.182;2024-02-21T00:20:16;25.70;;;12.80;;
37477;SDS011;23334;54.316;10.182;2024-02-21T00:22:42;34.23;;;13.80;;
37477;SDS011;23334;54.316;10.182;2024-02-21T00:25:08;35.40;;;13.87;;
37477;SDS011;23334;54.316;10.182;2024-02-21T00:27:34;29.60;;;14.00;;
37477;SDS011;23334;54.316;10.182;2024-02-21T00:30:00;28.83;;;13.00;;
37477;SDS011;23334;54.316;10.182;2024-02-21T00:32:25;31.83;;;13.60;;
37477;SDS011;23334;54.316;10.182;2024-02-21T00:34:51;40.23;;;13.00;;
37477;SDS011;23334;54.316;10.182;2024-02-21T00:37:17;33.10;;;12.53;;
37477;SDS011;23334;54.316;10.182;2024-02-21T00:39:43;33.13;;;14.40;;
37477;SDS011;23334;54.316;10.182;2024-02-21T00:42:09;23.57;;;12.80;;
37477;SDS011;23334;54.316;10.182;2024-02-21T00:44:35;36.30;;;13.90;;
37477;SDS011;23334;54.316;10.182;2024-02-21T00:47:01;31.03;;;13.03;;
37477;SDS011;23334;54.316;10.182;2024-02-21T00:49:27;30.77;;;12.97;;
37477;SDS011;23334;54.316;10.182;2024-02-21T00:51:52;26.43;;;13.80;;
37477;SDS011;23334;54.316;10.182;2024-02-21T00:54:18;26.00;;;13.83;;
37477;SDS011;23334;54.316;10.182;2024-02-21T00:56:43;27.43;;;13.00;;
37477;SDS011;23334;54.316;10.182;2024-02-21T00:59:09;28.03;;;13.83;;
37477;SDS011;23334;54.316;10.182;2024-02-21T01:01:36;23.93;;;12.73;;
37477;SDS011;23334;54.316;10.182;2024-02-21T01:04:02;21.37;;;11.80;;
37477;SDS011;23334;54.316;10.182;2024-02-21T01:06:28;30.30;;;13.07;;
37477;SDS011;23334;54.316;10.182;2024-02-21T01:08:55;24.60;;;13.40;;
37477;SDS011;23334;54.316;10.182;2024-02-21T01:11:20;31.47;;;13.40;;
37477;SDS011;23334;54.316;10.182;2024-02-21T01:13:46;26.73;;;13.37;;
37477;SDS011;23334;54.316;10.182;2024-02-21T01:16:12;23.43;;;12.40;;
37477;SDS011;23334;54.316;10.182;2024-02-21T01:18:38;35.80;;;14.43;;
37477;SDS011;23334;54.316;10.182;2024-02-21T01:21:04;33.37;;;14.27;;
37477;SDS011;23334;54.316;10.182;2024-02-21T01:23:34;28.17;;;14.23;;
37477;SDS011;23334;54.316;10.182;2024-02-21T01:26:01;30.17;;;13.57;;
37477;SDS011;23334;54.316;10.182;2024-02-21T01:28:27;25.97;;;12.87;;
37477;SDS011;23334;54.316;10.182;2024-02-21T01:30:53;29.50;;;14.53;;
37477;SDS011;23334;54.316;10.182;2024-02-21T01:33:18;27.47;;;13.33;;
37477;SDS011;23334;54.316;10.182;2024-02-21T01:35:44;25.07;;;13.43;;
37477;SDS011;23334;54.316;10.182;2024-02-21T01:38:12;23.33;;;12.73;;
37477;SDS011;23334;54.316;10.182;2024-02-21T01:40:38;27.63;;;12.93;;
37477;SDS011;23334;54.316;10.182;2024-02-21T01:43:06;24.23;;;12.23;;
37477;SDS011;23334;54.316;10.182;2024-02-21T01:45:41;27.37;;;11.50;;
37477;SDS011;23334;54.316;10.182;2024-02-21T01:48:07;25.37;;;12.63;;
37477;SDS011;23334;54.316;10.182;2024-02-21T01:50:33;21.67;;;10.80;;
37477;SDS011;23334;54.316;10.182;2024-02-21T01:52:58;19.00;;;11.40;;
37477;SDS011;23334;54.316;10.182;2024-02-21T01:55:25;23.03;;;11.27;;
37477;SDS011;23334;54.316;10.182;2024-02-21T01:57:51;22.67;;;11.90;;
37477;SDS011;23334;54.316;10.182;2024-02-21T02:00:17;20.00;;;10.80;;
37477;SDS011;23334;54.316;10.182;2024-02-21T02:02:43;20.90;;;10.03;;
37477;SDS011;23334;54.316;10.182;2024-02-21T02:05:10;21.40;;;10.27;;
37477;SDS011;23334;54.316;10.182;2024-02-21T02:07:37;17.07;;;9.37;;
37477;SDS011;23334;54.316;10.182;2024-02-21T02:10:02;15.43;;;9.20;;
37477;SDS011;23334;54.316;10.182;2024-02-21T02:12:28;16.50;;;9.03;;
37477;SDS011;23334;54.316;10.182;2024-02-21T02:14:58;19.57;;;9.70;;
37477;SDS011;23334;54.316;10.182;2024-02-21T02:17:30;13.43;;;8.73;;
37477;SDS011;23334;54.316;10.182;2024-02-21T02:19:56;20.53;;;8.30;;
37477;SDS011;23334;54.316;10.182;2024-02-21T02:22:22;15.60;;;8.47;;
37477;SDS011;23334;54.316;10.182;2024-02-21T02:24:53;13.03;;;8.63;;
37477;SDS011;23334;54.316;10.182;2024-02-21T02:27:19;12.93;;;8.90;;
37477;SDS011;23334;54.316;10.182;2024-02-21T02:29:45;14.20;;;8.53;;
37477;SDS011;23334;54.316;10.182;2024-02-21T02:32:10;16.13;;;8.37;;
37477;SDS011;23334;54.316;10.182;2024-02-21T02:34:36;16.77;;;9.77;;
37477;SDS011;23334;54.316;10.182;2024-02-21T02:37:02;19.37;;;8.43;;
37477;SDS011;23334;54.316;10.182;2024-02-21T02:39:29;23.00;;;9.37;;
37477;SDS011;23334;54.316;10.182;2024-02-21T02:41:54;19.93;;;9.13;;
37477;SDS011;23334;54.316;10.182;2024-02-21T02:44:20;14.20;;;8.50;;
37477;SDS011;23334;54.316;10.182;2024-02-21T02:46:46;15.50;;;9.33;;
37477;SDS011;23334;54.316;10.182;2024-02-21T02:49:12;11.00;;;7.87;;
37477;SDS011;23334;54.316;10.182;2024-02-21T02:51:42;13.77;;;8.50;;
37477;SDS011;23334;54.316;10.182;2024-02-21T02:54:11;11.23;;;7.80;;
37477;SDS011;23334;54.316;10.182;2024-02-21T02:56:37;9.70;;;7.50;;
37477;SDS011;23334;54.316;10.182;2024-02-21T02:59:04;11.20;;;7.30;;
37477;SDS011;23334;54.316;10.182;2024-02-21T03:01:33;9.47;;;6.60;;
37477;SDS011;23334;54.316;10.182;2024-02-21T03:03:59;8.53;;;5.50;;
37477;SDS011;23334;54.316;10.182;2024-02-21T03:06:25;7.07;;;5.07;;
37477;SDS011;23334;54.316;10.182;2024-02-21T03:08:51;9.00;;;4.97;;
37477;SDS011;23334;54.316;10.182;2024-02-21T03:11:19;6.10;;;4.60;;
37477;SDS011;23334;54.316;10.182;2024-02-21T03:13:46;4.83;;;4.10;;
37477;SDS011;23334;54.316;10.182;2024-02-21T03:16:12;5.50;;;4.20;;
37477;SDS011;23334;54.316;10.182;2024-02-21T03:18:38;5.30;;;3.90;;
37477;SDS011;23334;54.316;10.182;2024-02-21T03:21:04;3.20;;;3.00;;
37477;SDS011;23334;54.316;10.182;2024-02-21T03:23:30;3.53;;;3.27;;
37477;SDS011;23334;54.316;10.182;2024-02-21T03:25:56;7.00;;;3.27;;
37477;SDS011;23334;54.316;10.182;2024-02-21T03:28:21;3.13;;;2.43;;
37477;SDS011;23334;54.316;10.182;2024-02-21T03:30:47;5.00;;;2.60;;
37477;SDS011;23334;54.316;10.182;2024-02-21T03:33:13;3.33;;;2.37;;
37477;SDS011;23334;54.316;10.182;2024-02-21T03:35:38;2.53;;;2.40;;
37477;SDS011;23334;54.316;10.182;2024-02-21T03:38:04;1.97;;;1.87;;
37477;SDS011;23334;54.316;10.182;2024-02-21T03:40:30;3.37;;;2.10;;
37477;SDS011;23334;54.316;10.182;2024-02-21T03:42:56;1.93;;;1.60;;
37477;SDS011;23334;54.316;10.182;2024-02-21T03:45:22;2.87;;;1.53;;
37477;SDS011;23334;54.316;10.182;2024-02-21T03:47:48;2.40;;;1.50;;
37477;SDS011;23334;54.316;10.182;2024-02-21T03:50:14;2.00;;;1.67;;
37477;SDS011;23334;54.316;10.182;2024-02-21T03:52:40;2.10;;;2.00;;
37477;SDS011;23334;54.316;10.182;2024-02-21T03:55:06;1.37;;;1.20;;
37477;SDS011;23334;54.316;10.182;2024-02-21T03:57:32;2.93;;;1.50;;
37477;SDS011;23334;54.316;10.182;2024-02-21T03:59:58;2.80;;;1.10;;
37477;SDS011;23334;54.316;10.182;2024-02-21T04:02:26;2.73;;;1.00;;
37477;SDS011;23334;54.316;10.182;2024-02-21T04:04:53;1.77;;;1.00;;
37477;SDS011;23334;54.316;10.182;2024-02-21T04:07:19;2.93;;;1.00;;
37477;SDS011;23334;54.316;10.182;2024-02-21T04:09:44;3.23;;;1.37;;
37477;SDS011;23334;54.316;10.182;2024-02-21T04:12:10;3.40;;;1.40;;
37477;SDS011;23334;54.316;10.182;2024-02-21T04:14:36;3.20;;;1.60;;
37477;SDS011;23334;54.316;10.182;2024-02-21T04:17:02;1.83;;;1.17;;
37477;SDS011;23334;54.316;10.182;2024-02-21T04:19:28;4.23;;;1.20;;
37477;SDS011;23334;54.316;10.182;2024-02-21T04:21:55;3.97;;;1.50;;
37477;SDS011;23334;54.316;10.182;2024-02-21T04:24:21;6.07;;;2.03;;
37477;SDS011;23334;54.316;10.182;2024-02-21T04:26:47;8.30;;;2.37;;
37477;SDS011;23334;54.316;10.182;2024-02-21T04:29:13;2.30;;;1.63;;
37477;SDS011;23334;54.316;10.182;2024-02-21T04:31:39;6.57;;;1.80;;
37477;SDS011;23334;54.316;10.182;2024-02-21T04:34:06;9.37;;;2.30;;
37477;SDS011;23334;54.316;10.182;2024-02-21T04:36:33;6.17;;;1.93;;
37477;SDS011;23334;54.316;10.182;2024-02-21T04:38:59;8.13;;;2.40;;
37477;SDS011;23334;54.316;10.182;2024-02-21T04:41:25;6.07;;;2.07;;
37477;SDS011;23334;54.316;10.182;2024-02-21T04:43:51;9.23;;;2.37;;
37477;SDS011;23334;54.316;10.182;2024-02-21T04:46:17;5.97;;;2.17;;
37477;SDS011;23334;54.316;10.182;2024-02-21T04:48:42;3.47;;;1.90;;
37477;SDS011;23334;54.316;10.182;2024-02-21T04:51:08;7.47;;;2.40;;
37477;SDS011;23334;54.316;10.182;2024-02-21T04:53:34;6.40;;;2.20;;
37477;SDS011;23334;54.316;10.182;2024-02-21T04:56:00;10.40;;;2.80;;
37477;SDS011;23334;54.316;10.182;2024-02-21T04:58:25;12.17;;;3.00;;
37477;SDS011;23334;54.316;10.182;2024-02-21T05:00:51;14.90;;;3.00;;
37477;SDS011;23334;54.316;10.182;2024-02-21T05:03:18;10.80;;;2.47;;
37477;SDS011;23334;54.316;10.182;2024-02-21T05:05:43;6.50;;;2.43;;
37477;SDS011;23334;54.316;10.182;2024-02-21T05:08:09;8.27;;;2.40;;
37477;SDS011;23334;54.316;10.182;2024-02-21T05:10:35;15.70;;;2.63;;
37477;SDS011;23334;54.316;10.182;2024-02-21T05:13:01;6.47;;;2.67;;
37477;SDS011;23334;54.316;10.182;2024-02-21T05:15:27;12.07;;;3.37;;
37477;SDS011;23334;54.316;10.182;2024-02-21T05:17:54;10.47;;;3.53;;
37477;SDS011;23334;54.316;10.182;2024-02-21T05:20:21;11.07;;;3.20;;
37477;SDS011;23334;54.316;10.182;2024-02-21T05:22:46;10.03;;;2.40;;
37477;SDS011;23334;54.316;10.182;2024-02-21T05:25:12;9.23;;;2.80;;
37477;SDS011;23334;54.316;10.182;2024-02-21T05:27:37;24.10;;;4.07;;
37477;SDS011;23334;54.316;10.182;2024-02-21T05:30:04;11.17;;;2.57;;
37477;SDS011;23334;54.316;10.182;2024-02-21T05:32:31;13.73;;;3.73;;
37477;SDS011;23334;54.316;10.182;2024-02-21T05:34:59;16.43;;;3.23;;
37477;SDS011;23334;54.316;10.182;2024-02-21T05:37:25;17.53;;;3.83;;
37477;SDS011;23334;54.316;10.182;2024-02-21T05:39:51;12.40;;;2.77;;
37477;SDS011;23334;54.316;10.182;2024-02-21T05:42:16;16.20;;;3.40;;
37477;SDS011;23334;54.316;10.182;2024-02-21T05:44:42;13.23;;;3.67;;
37477;SDS011;23334;54.316;10.182;2024-02-21T05:47:08;11.50;;;3.93;;
37477;SDS011;23334;54.316;10.182;2024-02-21T05:49:35;13.23;;;3.50;;
37477;SDS011;23334;54.316;10.182;2024-02-21T05:52:03;13.57;;;3.47;;
37477;SDS011;23334;54.316;10.182;2024-02-21T05:54:30;9.13;;;2.70;;
37477;SDS011;23334;54.316;10.182;2024-02-21T05:56:56;16.80;;;3.50;;
37477;SDS011;23334;54.316;10.182;2024-02-21T05:59:22;10.27;;;3.30;;
37477;SDS011;23334;54.316;10.182;2024-02-21T06:01:54;16.03;;;3.97;;
37477;SDS011;23334;54.316;10.182;2024-02-21T06:04:22;15.03;;;2.93;;
37477;SDS011;23334;54.316;10.182;2024-02-21T06:06:48;16.80;;;3.57;;
37477;SDS011;23334;54.316;10.182;2024-02-21T06:09:14;23.57;;;3.70;;
37477;SDS011;23334;54.316;10.182;2024-02-21T06:11:40;15.50;;;3.80;;
37477;SDS011;23334;54.316;10.182;2024-02-21T06:14:06;18.10;;;3.83;;
37477;SDS011;23334;54.316;10.182;2024-02-21T06:16:32;20.13;;;3.43;;
37477;SDS011;23334;54.316;10.182;2024-02-21T06:18:58;17.60;;;3.70;;
37477;SDS011;23334;54.316;10.182;2024-02-21T06:21:28;30.70;;;3.97;;
37477;SDS011;23334;54.316;10.182;2024-02-21T06:23:54;25.70;;;4.33;;
37477;SDS011;23334;54.316;10.182;2024-02-21T06:26:21;14.93;;;2.90;;
37477;SDS011;23334;54.316;10.182;2024-02-21T06:28:47;14.37;;;3.17;;
37477;SDS011;23334;54.316;10.182;2024-02-21T06:31:13;16.10;;;3.87;;
37477;SDS011;23334;54.316;10.182;2024-02-21T06:33:40;15.30;;;3.17;;
37477;SDS011;23334;54.316;10.182;2024-02-21T06:36:06;20.57;;;3.97;;
37477;SDS011;23334;54.316;10.182;2024-02-21T06:38:32;20.13;;;3.13;;
37477;SDS011;23334;54.316;10.182;2024-02-21T06:40:59;11.50;;;2.60;;
37477;SDS011;23334;54.316;10.182;2024-02-21T06:43:26;11.00;;;2.80;;
37477;SDS011;23334;54.316;10.182;2024-02-21T06:45:52;16.33;;;3.33;;
37477;SDS011;23334;54.316;10.182;2024-02-21T06:48:20;10.87;;;2.47;;
37477;SDS011;23334;54.316;10.182;2024-02-21T06:50:46;14.60;;;3.27;;
37477;SDS011;23334;54.316;10.182;2024-02-21T06:53:12;19.53;;;3.27;;
37477;SDS011;23334;54.316;10.182;2024-02-21T06:55:38;18.47;;;3.80;;
37477;SDS011;23334;54.316;10.182;2024-02-21T06:58:04;14.20;;;2.40;;
37477;SDS011;23334;54.316;10.182;2024-02-21T07:00:29;15.50;;;3.83;;
37477;SDS011;23334;54.316;10.182;2024-02-21T07:02:56;14.33;;;2.93;;
37477;SDS011;23334;54.316;10.182;2024-02-21T07:05:23;57.95;;;12.57;;
37477;SDS011;23334;54.316;10.182;2024-02-21T07:07:50;9.47;;;2.33;;
37477;SDS011;23334;54.316;10.182;2024-02-21T07:10:16;10.13;;;3.10;;
37477;SDS011;23334;54.316;10.182;2024-02-21T07:12:42;15.40;;;1.97;;
37477;SDS011;23334;54.316;10.182;2024-02-21T07:15:09;19.13;;;3.83;;
37477;SDS011;23334;54.316;10.182;2024-02-21T07:17:34;27.67;;;3.30;;
37477;SDS011;23334;54.316;10.182;2024-02-21T07:20:00;20.83;;;2.90;;
37477;SDS011;23334;54.316;10.182;2024-02-21T07:22:26;17.30;;;3.40;;
37477;SDS011;23334;54.316;10.182;2024-02-21T07:24:52;12.10;;;3.03;;
37477;SDS011;23334;54.316;10.182;2024-02-21T07:27:19;19.80;;;2.40;;
37477;SDS011;23334;54.316;10.182;2024-02-21T07:29:44;16.47;;;3.20;;
37477;SDS011;23334;54.316;10.182;2024-02-21T07:32:13;19.67;;;2.97;;
37477;SDS011;23334;54.316;10.182;2024-02-21T07:34:38;8.93;;;3.17;;
37477;SDS011;23334;54.316;10.182;2024-02-21T07:37:04;25.03;;;4.43;;
37477;SDS011;23334;54.316;10.182;2024-02-21T07:39:30;11.63;;;2.70;;
37477;SDS011;23334;54.316;10.182;2024-02-21T07:41:56;19.10;;;3.37;;
37477;SDS011;23334;54.316;10.182;2024-02-21T07:44:23;16.50;;;3.20;;
37477;SDS011;23334;54.316;10.182;2024-02-21T07:46:50;24.67;;;3.27;;
37477;SDS011;23334;54.316;10.182;2024-02-21T07:49:15;11.27;;;2.97;;
37477;SDS011;23334;54.316;10.182;2024-02-21T07:51:42;14.90;;;2.67;;
37477;SDS011;23334;54.316;10.182;2024-02-21T07:54:09;9.50;;;2.57;;
37477;SDS011;23334;54.316;10.182;2024-02-21T07:56:36;15.27;;;3.27;;
37477;SDS011;23334;54.316;10.182;2024-02-21T07:59:02;24.97;;;3.47;;
37477;SDS011;23334;54.316;10.182;2024-02-21T08:01:27;11.40;;;2.73;;
37477;SDS011;23334;54.316;10.182;2024-02-21T08:03:53;20.47;;;3.00;;
37477;SDS011;23334;54.316;10.182;2024-02-21T08:06:19;16.97;;;3.23;;
37477;SDS011;23334;54.316;10.182;2024-02-21T08:08:45;22.50;;;4.20;;
37477;SDS011;23334;54.316;10.182;2024-02-21T08:11:11;16.70;;;3.60;;
37477;SDS011;23334;54.316;10.182;2024-02-21T08:13:37;21.57;;;3.67;;
37477;SDS011;23334;54.316;10.182;2024-02-21T08:16:03;12.43;;;2.83;;
37477;SDS011;23334;54.316;10.182;2024-02-21T08:18:29;16.30;;;3.57;;
37477;SDS011;23334;54.316;10.182;2024-02-21T08:20:55;17.37;;;3.77;;
37477;SDS011;23334;54.316;10.182;2024-02-21T08:23:23;16.77;;;3.73;;
37477;SDS011;23334;54.316;10.182;2024-02-21T08:25:50;9.77;;;2.53;;
37477;SDS011;23334;54.316;10.182;2024-02-21T08:28:15;16.07;;;2.73;;
37477;SDS011;23334;54.316;10.182;2024-02-21T08:30:41;17.07;;;3.00;;
37477;SDS011;23334;54.316;10.182;2024-02-21T08:33:12;11.60;;;2.53;;
37477;SDS011;23334;54.316;10.182;2024-02-21T08:35:38;23.10;;;3.27;;
37477;SDS011;23334;54.316;10.182;2024-02-21T08:38:04;14.13;;;3.20;;
37477;SDS011;23334;54.316;10.182;2024-02-21T08:40:29;13.00;;;2.87;;
37477;SDS011;23334;54.316;10.182;2024-02-21T08:42:55;21.47;;;2.90;;
37477;SDS011;23334;54.316;10.182;2024-02-21T08:45:21;13.60;;;2.93;;
37477;SDS011;23334;54.316;10.182;2024-02-21T08:47:47;22.87;;;3.10;;
37477;SDS011;23334;54.316;10.182;2024-02-21T08:50:13;15.70;;;3.10;;
37477;SDS011;23334;54.316;10.182;2024-02-21T08:52:40;20.57;;;3.00;;
37477;SDS011;23334;54.316;10.182;2024-02-21T08:55:07;12.90;;;2.07;;
37477;SDS011;23334;54.316;10.182;2024-02-21T08:57:33;21.27;;;4.17;;
37477;SDS011;23334;54.316;10.182;2024-02-21T09:00:05;17.73;;;3.03;;
37477;SDS011;23334;54.316;10.182;2024-02-21T09:02:35;5.63;;;3.07;;
37477;SDS011;23334;54.316;10.182;2024-02-21T09:05:01;12.97;;;3.17;;
37477;SDS011;23334;54.316;10.182;2024-02-21T09:07:30;12.20;;;2.70;;
37477;SDS011;23334;54.316;10.182;2024-02-21T09:09:57;14.47;;;3.20;;
37477;SDS011;23334;54.316;10.182;2024-02-21T09:12:24;22.70;;;3.80;;
37477;SDS011;23334;54.316;10.182;2024-02-21T09:14:51;13.53;;;2.93;;
37477;SDS011;23334;54.316;10.182;2024-02-21T09:17:16;13.67;;;2.70;;
37477;SDS011;23334;54.316;10.182;2024-02-21T09:19:46;14.00;;;2.40;;
37477;SDS011;23334;54.316;10.182;2024-02-21T09:22:13;13.83;;;2.60;;
37477;SDS011;23334;54.316;10.182;2024-02-21T09:24:39;14.67;;;2.97;;
37477;SDS011;23334;54.316;10.182;2024-02-21T09:27:05;12.23;;;2.23;;
37477;SDS011;23334;54.316;10.182;2024-02-21T09:29:31;13.30;;;2.93;;
37477;SDS011;23334;54.316;10.182;2024-02-21T09:31:58;10.80;;;3.23;;
37477;SDS011;23334;54.316;10.182;2024-02-21T09:34:24;13.60;;;3.40;;
37477;SDS011;23334;54.316;10.182;2024-02-21T09:36:50;7.97;;;2.77;;
37477;SDS011;23334;54.316;10.182;2024-02-21T09:39:16;15.20;;;3.03;;
37477;SDS011;23334;54.316;10.182;2024-02-21T09:41:45;14.57;;;3.17;;
37477;SDS011;23334;54.316;10.182;2024-02-21T09:44:15;15.37;;;2.73;;
37477;SDS011;23334;54.316;10.182;2024-02-21T09:46:52;8.23;;;2.67;;
37477;SDS011;23334;54.316;10.182;2024-02-21T09:49:32;18.57;;;3.23;;
37477;SDS011;23334;54.316;10.182;2024-02-21T09:52:01;8.80;;;2.60;;
37477;SDS011;23334;54.316;10.182;2024-02-21T09:54:28;12.63;;;3.20;;
37477;SDS011;23334;54.316;10.182;2024-02-21T09:56:57;13.50;;;2.70;;
37477;SDS011;23334;54.316;10.182;2024-02-21T09:59:23;8.77;;;2.27;;
37477;SDS011;23334;54.316;10.182;2024-02-21T10:01:49;7.50;;;3.90;;
37477;SDS011;23334;54.316;10.182;2024-02-21T10:04:16;12.33;;;3.50;;
37477;SDS011;23334;54.316;10.182;2024-02-21T10:06:44;12.73;;;2.10;;
37477;SDS011;23334;54.316;10.182;2024-02-21T10:09:19;13.87;;;2.97;;
37477;SDS011;23334;54.316;10.182;2024-02-21T10:12:16;6.60;;;2.33;;
37477;SDS011;23334;54.316;10.182;2024-02-21T10:14:44;13.00;;;3.00;;
37477;SDS011;23334;54.316;10.182;2024-02-21T10:17:15;14.57;;;3.10;;
37477;SDS011;23334;54.316;10.182;2024-02-21T10:19:43;14.60;;;1.87;;
37477;SDS011;23334;54.316;10.182;2024-02-21T10:22:09;5.80;;;2.40;;
37477;SDS011;23334;54.316;10.182;2024-02-21T10:24:35;5.63;;;2.27;;
37477;SDS011;23334;54.316;10.182;2024-02-21T10:27:08;11.67;;;2.57;;
37477;SDS011;23334;54.316;10.182;2024-02-21T10:29:36;15.20;;;3.33;;
37477;SDS011;23334;54.316;10.182;2024-02-21T10:32:12;8.60;;;2.20;;
37477;SDS011;23334;54.316;10.182;2024-02-21T10:34:39;11.37;;;3.20;;
37477;SDS011;23334;54.316;10.182;2024-02-21T10:37:06;11.47;;;2.10;;
37477;SDS011;23334;54.316;10.182;2024-02-21T10:39:39;12.33;;;2.87;;
37477;SDS011;23334;54.316;10.182;2024-02-21T10:42:06;15.87;;;2.60;;
37477;SDS011;23334;54.316;10.182;2024-02-21T10:44:35;11.47;;;2.37;;
37477;SDS011;23334;54.316;10.182;2024-02-21T10:47:04;12.23;;;3.40;;
37477;SDS011;23334;54.316;10.182;2024-02-21T10:49:39;12.60;;;2.17;;
37477;SDS011;23334;54.316;10.182;2024-02-21T10:52:06;10.33;;;1.90;;
37477;SDS011;23334;54.316;10.182;2024-02-21T10:54:55;5.40;;;1.97;;
37477;SDS011;23334;54.316;10.182;2024-02-21T10:57:25;11.40;;;2.57;;
37477;SDS011;23334;54.316;10.182;2024-02-21T10:59:52;13.10;;;2.57;;
37477;SDS011;23334;54.316;10.182;2024-02-21T11:02:20;7.00;;;2.80;;
37477;SDS011;23334;54.316;10.182;2024-02-21T11:04:48;9.27;;;2.77;;
37477;SDS011;23334;54.316;10.182;2024-02-21T11:07:14;19.73;;;3.20;;
37477;SDS011;23334;54.316;10.182;2024-02-21T11:09:49;12.37;;;3.50;;
37477;SDS011;23334;54.316;10.182;2024-02-21T11:12:23;9.03;;;2.00;;
37477;SDS011;23334;54.316;10.182;2024-02-21T11:14:49;10.43;;;2.43;;
37477;SDS011;23334;54.316;10.182;2024-02-21T11:17:15;6.23;;;2.30;;
37477;SDS011;23334;54.316;10.182;2024-02-21T11:19:42;12.67;;;2.67;;
37477;SDS011;23334;54.316;10.182;2024-02-21T11:22:13;7.37;;;1.97;;
37477;SDS011;23334;54.316;10.182;2024-02-21T11:24:41;11.73;;;3.00;;
37477;SDS011;23334;54.316;10.182;2024-02-21T11:27:20;11.67;;;3.50;;
37477;SDS011;23334;54.316;10.182;2024-02-21T11:29:49;8.77;;;2.10;;
37477;SDS011;23334;54.316;10.182;2024-02-21T11:32:20;14.93;;;3.80;;
37477;SDS011;23334;54.316;10.182;2024-02-21T11:34:53;10.93;;;2.80;;
37477;SDS011;23334;54.316;10.182;2024-02-21T11:37:26;11.63;;;2.40;;
37477;SDS011;23334;54.316;10.182;2024-02-21T11:39:52;11.90;;;3.00;;
37477;SDS011;23334;54.316;10.182;2024-02-21T11:42:22;12.80;;;3.37;;
37477;SDS011;23334;54.316;10.182;2024-02-21T11:44:50;8.00;;;3.07;;
37477;SDS011;23334;54.316;10.182;2024-02-21T11:47:17;13.03;;;3.13;;
37477;SDS011;23334;54.316;10.182;2024-02-21T11:49:47;12.33;;;1.90;;
37477;SDS011;23334;54.316;10.182;2024-02-21T11:52:19;5.17;;;1.73;;
37477;SDS011;23334;54.316;10.182;2024-02-21T11:54:47;10.40;;;1.97;;
37477;SDS011;23334;54.316;10.182;2024-02-21T11:57:13;7.23;;;2.40;;
37477;SDS011;23334;54.316;10.182;2024-02-21T11:59:39;6.40;;;2.40;;
37477;SDS011;23334;54.316;10.182;2024-02-21T12:02:05;9.63;;;2.63;;
37477;SDS011;23334;54.316;10.182;2024-02-21T12:04:32;28.75;;;4.25;;
37477;SDS011;23334;54.316;10.182;2024-02-21T12:06:58;6.47;;;2.80;;
37477;SDS011;23334;54.316;10.182;2024-02-21T12:09:24;11.23;;;2.90;;
37477;SDS011;23334;54.316;10.182;2024-02-21T12:12:00;10.10;;;3.27;;
37477;SDS011;23334;54.316;10.182;2024-02-21T12:14:28;22.93;;;2.80;;
37477;SDS011;23334;54.316;10.182;2024-02-21T12:16:59;5.63;;;1.80;;
37477;SDS011;23334;54.316;10.182;2024-02-21T12:19:26;11.63;;;3.47;;
37477;SDS011;23334;54.316;10.182;2024-02-21T12:21:54;4.63;;;2.20;;
37477;SDS011;23334;54.316;10.182;2024-02-21T12:24:23;7.33;;;3.90;;
37477;SDS011;23334;54.316;10.182;2024-02-21T12:26:50;7.50;;;2.90;;
37477;SDS011;23334;54.316;10.182;2024-02-21T12:29:22;8.87;;;2.30;;
37477;SDS011;23334;54.316;10.182;2024-02-21T12:31:49;10.27;;;2.60;;
37477;SDS011;23334;54.316;10.182;2024-02-21T12:34:15;11.40;;;3.57;;
37477;SDS011;23334;54.316;10.182;2024-02-21T12:36:42;6.50;;;2.47;;
37477;SDS011;23334;54.316;10.182;2024-02-21T12:39:08;10.37;;;3.50;;
37477;SDS011;23334;54.316;10.182;2024-02-21T12:41:36;5.47;;;2.43;;
37477;SDS011;23334;54.316;10.182;2024-02-21T12:44:09;3.07;;;1.83;;
37477;SDS011;23334;54.316;10.182;2024-02-21T12:46:37;9.50;;;2.30;;
37477;SDS011;23334;54.316;10.182;2024-02-21T12:49:04;6.70;;;2.00;;
37477;SDS011;23334;54.316;10.182;2024-02-21T12:51:32;4.10;;;2.10;;
37477;SDS011;23334;54.316;10.182;2024-02-21T12:53:58;3.97;;;2.30;;
37477;SDS011;23334;54.316;10.182;2024-02-21T12:56:24;4.50;;;2.30;;
37477;SDS011;23334;54.316;10.182;2024-02-21T12:58:52;4.57;;;2.50;;
37477;SDS011;23334;54.316;10.182;2024-02-21T13:01:18;6.07;;;2.20;;
37477;SDS011;23334;54.316;10.182;2024-02-21T13:03:44;7.37;;;2.60;;
37477;SDS011;23334;54.316;10.182;2024-02-21T13:06:11;4.10;;;2.10;;
37477;SDS011;23334;54.316;10.182;2024-02-21T13:08:37;5.30;;;2.67;;
37477;SDS011;23334;54.316;10.182;2024-02-21T13:11:03;5.33;;;3.00;;
37477;SDS011;23334;54.316;10.182;2024-02-21T13:13:29;3.20;;;2.90;;
37477;SDS011;23334;54.316;10.182;2024-02-21T13:15:57;3.00;;;2.70;;
37477;SDS011;23334;54.316;10.182;2024-02-21T13:18:24;7.23;;;2.97;;
37477;SDS011;23334;54.316;10.182;2024-02-21T13:20:50;8.40;;;2.90;;
37477;SDS011;23334;54.316;10.182;2024-02-21T13:23:16;3.60;;;2.80;;
37477;SDS011;23334;54.316;10.182;2024-02-21T13:25:42;3.77;;;2.40;;
37477;SDS011;23334;54.316;10.182;2024-02-21T13:28:09;6.33;;;2.93;;
37477;SDS011;23334;54.316;10.182;2024-02-21T13:30:37;3.63;;;2.53;;
37477;SDS011;23334;54.316;10.182;2024-02-21T13:33:02;2.00;;;1.90;;
37477;SDS011;23334;54.316;10.182;2024-02-21T13:35:28;6.80;;;2.73;;
37477;SDS011;23334;54.316;10.182;2024-02-21T13:37:54;5.90;;;2.70;;
37477;SDS011;23334;54.316;10.182;2024-02-21T13:40:20;3.83;;;2.53;;
37477;SDS011;23334;54.316;10.182;2024-02-21T13:42:47;3.60;;;2.23;;
37477;SDS011;23334;54.316;10.182;2024-02-21T13:45:13;2.83;;;2.63;;
37477;SDS011;23334;54.316;10.182;2024-02-21T13:47:39;3.80;;;3.33;;
37477;SDS011;23334;54.316;10.182;2024-02-21T13:50:05;3.90;;;2.93;;
37477;SDS011;23334;54.316;10.182;2024-02-21T13:52:37;3.70;;;3.40;;
37477;SDS011;23334;54.316;10.182;2024-02-21T13:55:02;3.70;;;3.40;;
37477;SDS011;23334;54.316;10.182;2024-02-21T13:57:28;4.77;;;3.70;;
37477;SDS011;23334;54.316;10.182;2024-02-21T13:59:54;5.77;;;3.70;;
37477;SDS011;23334;54.316;10.182;2024-02-21T14:02:20;6.70;;;4.17;;
37477;SDS011;23334;54.316;10.182;2024-02-21T14:04:46;7.40;;;3.77;;
37477;SDS011;23334;54.316;10.182;2024-02-21T14:07:12;5.83;;;4.37;;
37477;SDS011;23334;54.316;10.182;2024-02-21T14:09:38;5.17;;;3.80;;
37477;SDS011;23334;54.316;10.182;2024-02-21T14:12:04;5.47;;;4.67;;
37477;SDS011;23334;54.316;10.182;2024-02-21T14:14:33;7.87;;;5.20;;
37477;SDS011;23334;54.316;10.182;2024-02-21T14:16:58;7.80;;;5.00;;
37477;SDS011;23334;54.316;10.182;2024-02-21T14:19:25;13.40;;;9.17;;
37477;SDS011;23334;54.316;10.182;2024-02-21T14:21:50;8.20;;;5.63;;